Time;durP1;ratioP1;P1;durP2;ratioP2;P2;SDS_P1;SDS_P2;PMS_P1;PMS_P2;Temp;Humidity;BMP_temperature;BMP_pressure;BME280_temperature;BME280_humidity;BME280_pressure;Samples;Min_cycle;Max_cycle;Signal;HPM_P1;HPM_P2
2023/08/31 00:00:32;;;;;;;1.00;1.00;;;15.40;99.90;;;;;;4179568;28;20048;-61
2023/08/31 00:02:53;;;;;;;3.33;1.20;;;15.40;99.90;;;;;;4180233;28;20055;-62
2023/08/31 00:05:13;;;;;;;2.33;1.10;;;15.30;99.90;;;;;;4178810;28;20044;-62
2023/08/31 00:07:33;;;;;;;1.00;1.00;;;15.30;99.90;;;;;;4177027;28;20045;-61
2023/08/31 00:09:53;;;;;;;1.10;1.10;;;15.20;99.90;;;;;;4176619;28;20106;-61
2023/08/31 00:12:13;;;;;;;1.67;1.00;;;15.20;99.90;;;;;;4177474;28;20044;-62
2023/08/31 00:14:33;;;;;;;1.60;1.00;;;15.20;99.90;;;;;;4180601;28;20068;-62
2023/08/31 00:16:53;;;;;;;1.35;1.20;;;15.20;99.90;;;;;;4178736;28;20167;-62
2023/08/31 00:19:14;;;;;;;1.00;1.00;;;15.30;99.90;;;;;;4179071;28;20082;-62
2023/08/31 00:21:34;;;;;;;2.28;1.13;;;15.20;99.90;;;;;;4179402;28;20056;-62
2023/08/31 00:23:54;;;;;;;4.22;1.10;;;15.20;99.90;;;;;;4180820;28;20147;-62
2023/08/31 00:26:14;;;;;;;1.52;1.42;;;15.20;99.90;;;;;;4179248;28;20117;-61
2023/08/31 00:28:34;;;;;;;1.10;1.00;;;15.20;99.90;;;;;;4180220;28;20076;-61
2023/08/31 00:30:55;;;;;;;1.50;1.00;;;15.20;99.90;;;;;;4179222;28;20079;-61
2023/08/31 00:33:16;;;;;;;1.70;1.00;;;15.20;99.90;;;;;;4184512;28;20047;-62
2023/08/31 00:35:36;;;;;;;1.63;1.00;;;15.20;99.90;;;;;;4176093;28;20256;-61
2023/08/31 00:37:58;;;;;;;3.75;1.58;;;15.30;99.90;;;;;;4180220;28;20048;-62
2023/08/31 00:40:18;;;;;;;1.10;1.10;;;15.30;99.90;;;;;;4177020;28;20052;-61
2023/08/31 00:42:38;;;;;;;0.90;0.90;;;15.30;99.90;;;;;;4178889;28;20418;-62
2023/08/31 00:44:59;;;;;;;3.35;1.02;;;15.30;99.90;;;;;;4180859;28;20102;-62
2023/08/31 00:47:19;;;;;;;1.08;1.08;;;15.20;99.90;;;;;;4179506;28;20048;-62
2023/08/31 00:49:40;;;;;;;1.33;1.10;;;15.20;99.90;;;;;;4179994;28;20059;-62
2023/08/31 00:52:00;;;;;;;2.65;1.10;;;15.20;99.90;;;;;;4180012;28;20040;-61
2023/08/31 00:54:21;;;;;;;1.80;1.00;;;15.10;99.90;;;;;;4180046;28;20091;-61
2023/08/31 00:56:40;;;;;;;4.28;2.38;;;15.30;99.90;;;;;;4182396;28;20051;-62
2023/08/31 00:59:00;;;;;;;1.20;1.20;;;15.30;99.90;;;;;;4179407;28;20045;-62
2023/08/31 01:01:35;;;;;;;1.58;1.20;;;15.40;99.90;;;;;;4181063;28;20055;-62
2023/08/31 01:04:06;;;;;;;2.03;1.92;;;15.40;99.90;;;;;;4175851;28;20060;-62
2023/08/31 01:06:47;;;;;;;3.05;2.95;;;15.40;99.90;;;;;;4180069;28;20084;-62
2023/08/31 01:09:16;;;;;;;2.75;2.53;;;15.40;99.90;;;;;;4180156;28;20083;-62
2023/08/31 01:12:01;;;;;;;2.17;1.80;;;15.40;99.90;;;;;;4177774;28;20044;-62
2023/08/31 01:14:40;;;;;;;5.00;2.03;;;15.40;99.90;;;;;;4182454;28;20051;-62
2023/08/31 01:17:02;;;;;;;2.72;1.40;;;15.40;99.90;;;;;;4178588;28;20100;-61
2023/08/31 01:19:44;;;;;;;1.35;1.15;;;15.40;99.90;;;;;;4179366;28;20378;-62
2023/08/31 01:22:11;;;;;;;2.03;1.10;;;15.40;99.90;;;;;;4181383;28;20044;-61
2023/08/31 01:24:31;;;;;;;2.80;1.42;;;15.50;99.90;;;;;;4179626;28;20283;-61
2023/08/31 01:26:52;;;;;;;1.52;1.10;;;15.40;99.90;;;;;;4181674;28;20070;-61
2023/08/31 01:29:12;;;;;;;6.18;1.60;;;15.30;99.90;;;;;;4178859;28;20109;-61
2023/08/31 01:31:31;;;;;;;1.67;1.58;;;15.30;99.90;;;;;;4181908;28;20418;-62
2023/08/31 01:33:52;;;;;;;9.93;1.45;;;15.20;99.90;;;;;;4179536;28;20079;-61
2023/08/31 01:36:28;;;;;;;1.58;1.20;;;15.30;99.90;;;;;;4180355;28;20069;-61
2023/08/31 01:38:55;;;;;;;4.55;1.02;;;15.30;99.90;;;;;;4185199;28;20052;-61
2023/08/31 01:41:18;;;;;;;6.18;2.05;;;15.20;99.90;;;;;;4179805;28;20048;-61
2023/08/31 01:43:40;;;;;;;1.90;1.20;;;15.30;99.90;;;;;;4183978;28;20048;-61
2023/08/31 01:46:00;;;;;;;2.03;1.43;;;15.30;99.90;;;;;;4181372;28;20075;-62
2023/08/31 01:48:20;;;;;;;2.05;1.23;;;15.40;99.90;;;;;;4182932;28;20282;-61
2023/08/31 01:50:41;;;;;;;6.53;1.60;;;15.20;99.90;;;;;;4182773;28;20085;-61
2023/08/31 01:53:01;;;;;;;4.50;1.30;;;15.20;99.90;;;;;;4179093;28;20049;-61
2023/08/31 01:55:23;;;;;;;3.10;1.30;;;15.10;99.90;;;;;;4180881;28;20052;-61
2023/08/31 01:57:43;;;;;;;3.60;1.48;;;15.20;99.90;;;;;;4179246;28;20077;-61
2023/08/31 02:00:04;;;;;;;2.70;1.70;;;15.10;99.90;;;;;;4180226;28;20052;-61
2023/08/31 02:02:24;;;;;;;1.92;1.83;;;15.10;99.90;;;;;;4179115;28;20064;-61
2023/08/31 02:04:43;;;;;;;3.28;3.17;;;15.20;99.90;;;;;;4178576;28;20051;-61
2023/08/31 02:07:03;;;;;;;2.33;2.22;;;15.30;99.90;;;;;;4180535;28;20075;-61
2023/08/31 02:09:23;;;;;;;1.77;1.67;;;15.20;99.90;;;;;;4176715;28;20071;-61
2023/08/31 02:11:43;;;;;;;5.07;1.98;;;15.30;99.90;;;;;;4182057;28;20064;-62
2023/08/31 02:14:04;;;;;;;1.50;1.48;;;15.30;99.90;;;;;;4174360;28;20056;-62
2023/08/31 02:16:24;;;;;;;3.60;1.10;;;15.30;99.90;;;;;;4181623;28;20052;-61
2023/08/31 02:18:44;;;;;;;1.48;1.10;;;15.40;99.90;;;;;;4181910;28;20087;-61
2023/08/31 02:21:07;;;;;;;4.60;1.20;;;15.40;99.90;;;;;;4181818;28;20052;-61
2023/08/31 02:23:27;;;;;;;1.85;1.70;;;15.40;99.90;;;;;;4181573;28;20387;-62
2023/08/31 02:25:46;;;;;;;1.45;1.35;;;15.40;99.90;;;;;;4180816;28;20099;-61
2023/08/31 02:28:06;;;;;;;2.25;1.08;;;15.40;99.90;;;;;;4179625;28;20071;-61
2023/08/31 02:30:26;;;;;;;6.47;1.27;;;15.40;99.90;;;;;;4178889;28;20044;-61
2023/08/31 02:32:47;;;;;;;2.85;1.20;;;15.40;99.90;;;;;;4179537;28;20053;-62
2023/08/31 02:35:07;;;;;;;3.10;1.85;;;15.30;99.90;;;;;;4180897;28;20100;-61
2023/08/31 02:37:27;;;;;;;4.35;1.30;;;15.30;99.90;;;;;;4181895;28;20047;-61
2023/08/31 02:39:46;;;;;;;3.50;1.60;;;15.30;99.90;;;;;;4177522;28;20072;-62
2023/08/31 02:42:07;;;;;;;2.55;1.38;;;15.30;99.90;;;;;;4181598;28;20051;-62
2023/08/31 02:44:27;;;;;;;2.42;2.05;;;15.20;99.90;;;;;;4180507;28;20279;-61
2023/08/31 02:46:47;;;;;;;4.97;1.35;;;15.20;99.90;;;;;;4182311;28;20064;-61
2023/08/31 02:49:07;;;;;;;1.30;1.30;;;15.20;99.90;;;;;;4180941;28;20240;-61
2023/08/31 02:51:27;;;;;;;1.55;1.55;;;15.20;99.90;;;;;;4180759;28;20044;-61
2023/08/31 02:53:47;;;;;;;2.35;1.63;;;15.20;99.90;;;;;;4179923;28;20057;-62
2023/08/31 02:56:07;;;;;;;1.90;1.80;;;15.10;99.90;;;;;;4179301;28;20083;-62
2023/08/31 02:58:27;;;;;;;3.95;1.55;;;15.10;99.90;;;;;;4180808;28;20044;-61
2023/08/31 03:00:48;;;;;;;2.33;1.98;;;15.10;99.90;;;;;;4181698;28;20291;-62
2023/08/31 03:03:08;;;;;;;2.45;1.92;;;15.10;99.90;;;;;;4177610;28;20068;-62
2023/08/31 03:05:28;;;;;;;1.75;1.70;;;15.10;99.90;;;;;;4182536;28;20047;-62
2023/08/31 03:07:48;;;;;;;2.13;2.05;;;15.10;99.90;;;;;;4179526;28;20060;-61
2023/08/31 03:10:08;;;;;;;2.00;1.83;;;15.10;99.90;;;;;;4178528;28;20085;-62
2023/08/31 03:12:28;;;;;;;1.77;1.35;;;15.10;99.90;;;;;;4181068;28;20088;-61
2023/08/31 03:14:48;;;;;;;3.35;1.90;;;15.10;99.90;;;;;;4180434;28;20105;-61
2023/08/31 03:17:08;;;;;;;1.90;1.75;;;15.10;99.90;;;;;;4181944;28;20083;-61
2023/08/31 03:19:28;;;;;;;7.53;1.92;;;15.10;99.90;;;;;;4179373;28;20091;-61
2023/08/31 03:21:48;;;;;;;1.80;1.65;;;15.10;99.90;;;;;;4179193;28;20039;-61
2023/08/31 03:24:07;;;;;;;1.98;1.60;;;15.10;99.90;;;;;;4186012;28;20095;-61
2023/08/31 03:26:28;;;;;;;6.75;1.77;;;15.20;99.90;;;;;;4178995;28;20071;-61
2023/08/31 03:28:48;;;;;;;1.50;1.40;;;15.20;99.90;;;;;;4173146;28;20099;-61
2023/08/31 03:31:07;;;;;;;2.65;1.30;;;15.10;99.90;;;;;;4179497;28;20048;-61
2023/08/31 03:33:28;;;;;;;1.40;1.40;;;15.20;99.90;;;;;;4177879;28;20072;-61
2023/08/31 03:35:48;;;;;;;3.03;1.60;;;15.20;99.90;;;;;;4179626;28;20052;-61
2023/08/31 03:38:08;;;;;;;1.83;1.65;;;15.20;99.90;;;;;;4178620;28;20099;-61
2023/08/31 03:40:28;;;;;;;4.53;1.92;;;15.20;99.90;;;;;;4180345;28;20049;-62
2023/08/31 03:42:50;;;;;;;2.65;1.75;;;15.20;99.90;;;;;;4180710;28;20051;-61
2023/08/31 03:45:10;;;;;;;1.73;1.73;;;15.10;99.90;;;;;;4180912;28;20052;-61
2023/08/31 03:47:30;;;;;;;2.28;2.17;;;15.20;99.90;;;;;;4180086;28;20039;-61
2023/08/31 03:49:50;;;;;;;1.90;1.75;;;15.20;99.90;;;;;;4178764;28;20084;-61
2023/08/31 03:52:10;;;;;;;2.25;1.95;;;15.20;99.90;;;;;;4179593;28;20074;-64
2023/08/31 03:54:30;;;;;;;2.70;2.58;;;15.10;99.90;;;;;;4181607;28;20087;-61
2023/08/31 03:56:50;;;;;;;2.58;2.35;;;15.10;99.90;;;;;;4179256;28;20045;-62
2023/08/31 03:59:10;;;;;;;3.38;2.13;;;15.10;99.90;;;;;;4177973;28;20067;-61
2023/08/31 04:01:30;;;;;;;2.25;2.22;;;15.00;99.90;;;;;;4179098;28;20048;-62
2023/08/31 04:03:50;;;;;;;3.03;2.65;;;15.00;99.90;;;;;;4180448;28;20052;-62
2023/08/31 04:06:10;;;;;;;3.58;2.85;;;15.00;99.90;;;;;;4177333;28;20048;-61
2023/08/31 04:08:31;;;;;;;2.70;2.60;;;15.00;99.90;;;;;;4179752;28;20075;-61
2023/08/31 04:10:50;;;;;;;3.80;3.50;;;15.00;99.90;;;;;;4180276;28;20298;-62
2023/08/31 04:13:10;;;;;;;5.43;3.20;;;15.00;99.90;;;;;;4180387;28;20244;-62
2023/08/31 04:15:34;;;;;;;8.52;4.35;;;15.00;99.90;;;;;;4181009;28;20063;-62
2023/08/31 04:17:54;;;;;;;2.38;2.30;;;15.00;99.90;;;;;;4179442;28;20063;-61
2023/08/31 04:20:14;;;;;;;2.20;2.10;;;15.00;99.90;;;;;;4179796;28;20044;-61
2023/08/31 04:22:35;;;;;;;2.60;2.50;;;15.10;99.90;;;;;;4182339;28;20041;-61
2023/08/31 04:24:55;;;;;;;3.53;2.22;;;15.10;99.90;;;;;;4175379;28;20056;-61
2023/08/31 04:27:15;;;;;;;2.33;2.33;;;15.00;99.90;;;;;;4181308;28;20075;-61
2023/08/31 04:29:35;;;;;;;2.63;2.63;;;15.00;99.90;;;;;;4177377;28;20048;-61
2023/08/31 04:31:55;;;;;;;2.67;2.58;;;15.00;99.90;;;;;;4177999;28;20057;-62
2023/08/31 04:34:15;;;;;;;2.63;2.63;;;15.00;99.90;;;;;;4182120;28;20055;-61
2023/08/31 04:36:35;;;;;;;2.63;2.53;;;15.00;99.90;;;;;;4178047;28;20057;-61
2023/08/31 04:38:56;;;;;;;4.22;2.63;;;15.00;99.90;;;;;;4178304;28;20052;-61
2023/08/31 04:41:16;;;;;;;2.15;1.73;;;14.90;99.90;;;;;;4179857;28;20047;-61
2023/08/31 04:43:36;;;;;;;4.15;1.50;;;14.90;99.90;;;;;;4180243;28;20081;-61
2023/08/31 04:45:56;;;;;;;1.40;1.40;;;15.00;99.90;;;;;;4180314;28;20120;-61
2023/08/31 04:48:16;;;;;;;2.15;1.77;;;15.00;99.90;;;;;;4180618;28;20053;-61
2023/08/31 04:50:36;;;;;;;2.33;1.70;;;15.00;99.90;;;;;;4178097;28;20056;-61
2023/08/31 04:52:56;;;;;;;1.40;1.40;;;15.00;99.90;;;;;;4179850;28;20148;-61
2023/08/31 04:55:16;;;;;;;1.65;1.30;;;15.00;99.90;;;;;;4176719;28;20134;-61
2023/08/31 04:57:35;;;;;;;2.25;1.40;;;14.90;99.90;;;;;;4182486;28;20044;-61
2023/08/31 04:59:55;;;;;;;2.05;1.75;;;14.90;99.90;;;;;;4179278;28;20055;-61
2023/08/31 05:02:16;;;;;;;3.00;2.15;;;14.80;99.90;;;;;;4178462;28;20053;-62
2023/08/31 05:04:36;;;;;;;4.82;2.35;;;14.80;99.90;;;;;;4184111;28;20103;-61
2023/08/31 05:06:55;;;;;;;3.05;2.88;;;14.80;99.90;;;;;;4178602;28;20366;-61
2023/08/31 05:09:15;;;;;;;2.58;2.38;;;14.80;99.90;;;;;;4183260;28;20106;-61
2023/08/31 05:11:35;;;;;;;3.25;3.15;;;14.80;99.90;;;;;;4182344;28;20113;-61
2023/08/31 05:13:55;;;;;;;4.13;3.83;;;14.90;99.90;;;;;;4182146;28;20056;-61
2023/08/31 05:16:15;;;;;;;4.25;3.97;;;14.90;99.90;;;;;;4187216;28;20235;-61
2023/08/31 05:18:35;;;;;;;4.60;4.40;;;14.90;99.90;;;;;;4177916;28;20044;-61
2023/08/31 05:20:55;;;;;;;6.22;5.70;;;14.90;99.90;;;;;;4184797;28;20090;-61
2023/08/31 05:23:15;;;;;;;4.30;4.05;;;14.90;99.90;;;;;;4185948;28;20099;-61
2023/08/31 05:25:36;;;;;;;4.18;4.05;;;14.90;99.90;;;;;;4181222;28;20048;-61
2023/08/31 05:27:56;;;;;;;3.53;3.42;;;14.90;99.90;;;;;;4175013;28;20061;-61
2023/08/31 05:30:16;;;;;;;4.35;3.97;;;15.00;99.90;;;;;;4179311;28;20061;-61
2023/08/31 05:32:36;;;;;;;3.83;3.63;;;15.00;99.90;;;;;;4181485;28;20261;-61
2023/08/31 05:34:56;;;;;;;6.47;3.00;;;15.10;99.90;;;;;;4176478;28;20060;-61
2023/08/31 05:37:16;;;;;;;3.55;3.17;;;15.00;99.90;;;;;;4180435;28;20104;-61
2023/08/31 05:39:36;;;;;;;3.60;3.25;;;15.10;99.90;;;;;;4184274;28;20109;-61
2023/08/31 05:41:57;;;;;;;3.88;3.58;;;15.10;99.90;;;;;;4182503;28;20060;-61
2023/08/31 05:44:17;;;;;;;2.50;2.30;;;15.10;99.90;;;;;;4181268;28;20048;-61
2023/08/31 05:46:38;;;;;;;2.55;2.35;;;15.10;99.90;;;;;;4180544;28;20052;-61
2023/08/31 05:48:58;;;;;;;2.33;2.22;;;15.10;99.90;;;;;;4179679;28;20437;-61
2023/08/31 05:51:18;;;;;;;2.35;2.10;;;15.20;99.90;;;;;;4180338;28;20429;-61
2023/08/31 05:53:38;;;;;;;2.25;2.15;;;15.20;99.90;;;;;;4178691;28;20075;-61
2023/08/31 05:56:05;;;;;;;4.88;2.45;;;15.20;99.90;;;;;;4182816;28;20275;-61
2023/08/31 05:58:25;;;;;;;3.97;3.00;;;15.20;99.90;;;;;;4180728;28;20083;-61
2023/08/31 06:00:45;;;;;;;2.85;2.85;;;15.30;99.90;;;;;;4180148;28;20043;-61
2023/08/31 06:03:05;;;;;;;3.38;2.55;;;15.30;99.90;;;;;;4184604;28;20087;-61
2023/08/31 06:05:27;;;;;;;2.72;2.55;;;15.20;99.90;;;;;;4180843;28;20111;-61
2023/08/31 06:07:47;;;;;;;3.38;3.15;;;15.40;99.90;;;;;;4181980;28;20108;-60
2023/08/31 06:10:07;;;;;;;2.72;2.63;;;15.40;99.90;;;;;;4181732;28;20056;-60
2023/08/31 06:12:27;;;;;;;2.08;1.98;;;15.40;99.90;;;;;;4182284;28;20057;-60
2023/08/31 06:14:48;;;;;;;2.88;2.08;;;15.40;99.90;;;;;;4181009;28;20075;-61
2023/08/31 06:17:08;;;;;;;1.50;1.50;;;15.40;99.90;;;;;;4179913;28;20053;-61
2023/08/31 06:19:28;;;;;;;2.15;2.05;;;15.40;99.90;;;;;;4181375;28;20048;-60
2023/08/31 06:21:48;;;;;;;2.03;2.00;;;15.40;99.90;;;;;;4180231;28;20391;-60
2023/08/31 06:24:12;;;;;;;3.72;1.92;;;15.40;99.90;;;;;;4179831;28;20056;-61
2023/08/31 06:26:32;;;;;;;3.42;2.03;;;15.40;99.90;;;;;;4185598;28;20124;-61
2023/08/31 06:28:52;;;;;;;7.50;2.80;;;15.50;99.90;;;;;;4176528;28;20047;-60
2023/08/31 06:31:12;;;;;;;5.90;1.75;;;15.50;99.90;;;;;;4181054;28;20113;-60
2023/08/31 06:33:32;;;;;;;2.08;1.83;;;15.50;99.90;;;;;;4180862;28;20084;-60
2023/08/31 06:35:53;;;;;;;5.95;2.38;;;15.60;99.90;;;;;;4179323;28;20080;-60
2023/08/31 06:38:12;;;;;;;3.53;2.92;;;15.60;99.90;;;;;;4181047;28;20080;-60
2023/08/31 06:40:33;;;;;;;2.25;2.03;;;15.70;99.90;;;;;;4179898;28;20083;-60
2023/08/31 06:42:53;;;;;;;2.60;2.50;;;15.70;99.90;;;;;;4180886;28;20043;-60
2023/08/31 06:45:12;;;;;;;2.90;2.67;;;15.70;99.90;;;;;;4180217;28;20148;-60
2023/08/31 06:47:33;;;;;;;3.60;3.25;;;15.80;99.90;;;;;;4180380;28;20044;-60
2023/08/31 06:49:52;;;;;;;3.05;2.95;;;15.70;99.90;;;;;;4182194;28;20083;-60
2023/08/31 06:52:12;;;;;;;3.35;3.10;;;15.60;99.90;;;;;;4178538;28;20079;-60
2023/08/31 06:54:50;;;;;;;3.50;3.22;;;15.70;99.90;;;;;;4184124;28;20051;-60
2023/08/31 06:57:10;;;;;;;3.50;3.33;;;15.80;99.90;;;;;;4179409;28;20043;-60
2023/08/31 06:59:30;;;;;;;3.40;3.17;;;15.80;99.90;;;;;;4179761;28;20052;-60
2023/08/31 07:01:50;;;;;;;2.47;2.28;;;15.80;99.90;;;;;;4180168;28;20280;-60
2023/08/31 07:04:10;;;;;;;3.05;2.92;;;15.90;99.90;;;;;;4180906;28;20374;-60
2023/08/31 07:06:31;;;;;;;3.67;3.03;;;15.90;99.90;;;;;;4181422;28;20106;-60
2023/08/31 07:08:52;;;;;;;12.73;3.47;;;16.00;99.90;;;;;;4180639;28;20048;-60
2023/08/31 07:11:12;;;;;;;4.07;3.80;;;15.80;99.90;;;;;;4180965;28;20051;-59
2023/08/31 07:13:31;;;;;;;3.40;3.30;;;15.80;99.90;;;;;;4181970;28;20052;-60
2023/08/31 07:15:51;;;;;;;3.47;3.35;;;16.00;99.90;;;;;;4178927;28;20048;-60
2023/08/31 07:18:12;;;;;;;6.10;3.67;;;16.00;99.90;;;;;;4181524;28;20363;-60
2023/08/31 07:20:31;;;;;;;3.85;3.45;;;16.00;99.90;;;;;;4183071;28;20084;-59
2023/08/31 07:22:51;;;;;;;3.45;3.35;;;16.00;99.90;;;;;;4177694;28;20076;-59
2023/08/31 07:25:11;;;;;;;5.60;2.67;;;15.90;99.90;;;;;;4178716;28;20041;-59
2023/08/31 07:27:31;;;;;;;2.88;2.67;;;16.00;99.90;;;;;;4179318;28;20059;-59
2023/08/31 07:29:54;;;;;;;3.28;3.08;;;16.00;99.90;;;;;;4179849;28;20052;-59
2023/08/31 07:32:14;;;;;;;2.85;2.40;;;16.00;99.90;;;;;;4181205;28;20275;-59
2023/08/31 07:34:34;;;;;;;6.30;3.60;;;16.00;99.90;;;;;;4179885;28;20087;-59
2023/08/31 07:36:54;;;;;;;2.42;2.33;;;16.10;99.90;;;;;;4180789;28;20040;-59
2023/08/31 07:39:17;;;;;;;3.83;2.80;;;16.20;99.90;;;;;;4180966;28;20044;-59
2023/08/31 07:41:37;;;;;;;3.67;3.47;;;16.30;99.90;;;;;;4180135;28;20052;-58
2023/08/31 07:43:56;;;;;;;3.05;2.00;;;16.30;99.90;;;;;;4183510;28;20125;-59
2023/08/31 07:46:24;;;;;;;2.20;2.10;;;16.30;99.90;;;;;;4180133;28;20096;-59
2023/08/31 07:48:44;;;;;;;3.05;2.47;;;16.40;99.90;;;;;;4178883;28;20048;-59
2023/08/31 07:51:03;;;;;;;3.35;2.33;;;16.50;99.90;;;;;;4177683;28;20092;-59
2023/08/31 07:53:23;;;;;;;1.80;1.80;;;16.50;99.90;;;;;;4180451;28;20052;-58
2023/08/31 07:55:52;;;;;;;3.45;3.28;;;16.50;99.90;;;;;;4179020;28;20052;-58
2023/08/31 07:58:11;;;;;;;3.63;2.75;;;16.70;99.90;;;;;;4190381;28;20279;-59
2023/08/31 08:00:31;;;;;;;2.55;2.33;;;16.70;99.90;;;;;;4181658;28;20044;-58
2023/08/31 08:02:51;;;;;;;3.25;3.05;;;16.70;99.90;;;;;;4181275;28;20091;-59
2023/08/31 08:05:12;;;;;;;3.33;3.05;;;16.90;99.90;;;;;;4179398;28;20057;-58
2023/08/31 08:07:32;;;;;;;2.53;2.38;;;16.90;99.90;;;;;;4179852;28;20121;-58
2023/08/31 08:09:52;;;;;;;2.60;2.40;;;17.30;99.90;;;;;;4180105;28;20239;-58
2023/08/31 08:12:12;;;;;;;4.50;2.70;;;17.30;99.90;;;;;;4177946;28;20152;-59
2023/08/31 08:14:33;;;;;;;4.72;3.60;;;17.40;99.90;;;;;;4175381;28;20048;-58
2023/08/31 08:16:53;;;;;;;4.68;2.33;;;17.40;99.90;;;;;;4180203;28;20062;-58
2023/08/31 08:19:13;;;;;;;2.45;2.25;;;17.70;99.90;;;;;;4179219;28;20079;-58
2023/08/31 08:21:34;;;;;;;2.00;1.90;;;17.80;99.90;;;;;;4177303;28;20366;-59
2023/08/31 08:23:54;;;;;;;2.03;1.92;;;18.10;99.90;;;;;;4183160;28;20090;-59
2023/08/31 08:26:14;;;;;;;2.15;2.05;;;18.10;99.90;;;;;;4178110;28;20044;-59
2023/08/31 08:28:34;;;;;;;1.48;1.38;;;18.20;99.90;;;;;;4179926;28;20052;-59
2023/08/31 08:30:54;;;;;;;1.73;1.30;;;18.30;99.90;;;;;;4179677;28;20094;-59
2023/08/31 08:33:13;;;;;;;5.15;1.27;;;18.40;99.90;;;;;;4181423;28;20047;-59
2023/08/31 08:35:33;;;;;;;2.88;1.20;;;18.70;99.90;;;;;;4180668;28;20104;-59
2023/08/31 08:37:53;;;;;;;2.08;1.10;;;18.70;99.90;;;;;;4180470;28;20052;-58
2023/08/31 08:40:13;;;;;;;5.07;1.52;;;18.60;99.90;;;;;;4179283;28;20223;-58
2023/08/31 08:42:41;;;;;;;2.92;1.05;;;18.80;99.90;;;;;;4181037;28;20045;-59
2023/08/31 08:45:02;;;;;;;2.15;1.65;;;18.80;99.90;;;;;;4174508;28;20040;-58
2023/08/31 08:47:22;;;;;;;1.38;1.38;;;19.10;99.90;;;;;;4182404;28;20052;-58
2023/08/31 08:49:44;;;;;;;1.88;0.93;;;19.40;99.90;;;;;;4176301;28;20053;-59
2023/08/31 08:52:05;;;;;;;3.40;0.90;;;19.50;99.90;;;;;;4178154;28;20052;-58
2023/08/31 08:54:27;;;;;;;0.93;0.93;;;19.70;99.90;;;;;;4184822;28;20043;-58
2023/08/31 08:56:47;;;;;;;2.08;1.45;;;19.40;99.90;;;;;;4180117;28;20052;-58
2023/08/31 08:59:07;;;;;;;1.70;0.90;;;19.60;99.90;;;;;;4172245;28;20068;-58
2023/08/31 09:01:28;;;;;;;1.23;1.13;;;19.80;99.90;;;;;;4178338;28;20084;-59
2023/08/31 09:03:48;;;;;;;3.65;1.23;;;19.90;99.90;;;;;;4180105;28;20078;-58
2023/08/31 09:06:10;;;;;;;3.10;0.90;;;20.00;99.90;;;;;;4184841;28;20366;-59
2023/08/31 09:08:30;;;;;;;1.00;0.90;;;20.30;99.90;;;;;;4175147;28;20052;-59
2023/08/31 09:10:50;;;;;;;1.50;1.00;;;20.60;99.90;;;;;;4181724;28;20064;-59
2023/08/31 09:13:17;;;;;;;1.38;1.27;;;20.70;99.90;;;;;;4177876;28;20367;-58
2023/08/31 09:15:43;;;;;;;1.23;0.85;;;21.00;99.90;;;;;;4176589;28;20092;-59
2023/08/31 09:18:04;;;;;;;6.28;0.90;;;20.90;99.90;;;;;;4176405;28;20113;-59
2023/08/31 09:20:23;;;;;;;2.78;0.90;;;21.30;99.90;;;;;;4175551;28;20087;-58
2023/08/31 09:22:44;;;;;;;1.35;1.15;;;21.10;99.90;;;;;;4182231;28;20370;-59
2023/08/31 09:25:04;;;;;;;1.15;1.00;;;21.20;99.90;;;;;;4174278;28;20233;-58
2023/08/31 09:27:25;;;;;;;1.77;1.00;;;21.40;99.90;;;;;;4180220;28;20099;-58
2023/08/31 09:29:46;;;;;;;2.00;0.90;;;20.90;99.90;;;;;;4180987;28;20076;-59
2023/08/31 09:32:08;;;;;;;1.77;1.00;;;21.00;99.90;;;;;;4179910;28;20068;-58
2023/08/31 09:34:33;;;;;;;4.90;1.13;;;21.00;99.90;;;;;;4178672;28;20052;-59
2023/08/31 09:36:54;;;;;;;1.15;1.05;;;21.20;99.90;;;;;;4178356;28;20052;-58
2023/08/31 09:39:14;;;;;;;4.22;1.17;;;21.10;99.90;;;;;;4176841;28;20056;-58
2023/08/31 09:41:34;;;;;;;2.90;0.90;;;21.20;99.90;;;;;;4176553;28;20052;-58
2023/08/31 09:43:54;;;;;;;1.13;0.95;;;21.10;99.90;;;;;;4176213;28;20117;-58
2023/08/31 09:46:15;;;;;;;0.80;0.80;;;21.10;99.90;;;;;;4179346;28;20064;-58
2023/08/31 09:48:38;;;;;;;4.28;1.00;;;21.00;99.90;;;;;;4175601;28;20060;-59
2023/08/31 09:50:58;;;;;;;;;;;21.40;99.90;;;;;;4178627;28;20159;-58
2023/08/31 09:53:20;;;;;;;3.17;0.88;;;21.50;99.90;;;;;;4183956;28;19923;-58
2023/08/31 09:55:41;;;;;;;1.35;0.85;;;21.40;99.90;;;;;;4179196;28;20052;-58
2023/08/31 09:58:05;;;;;;;2.25;0.80;;;21.50;99.90;;;;;;4183044;28;20091;-59
2023/08/31 10:00:37;;;;;;;0.75;0.75;;;21.60;99.90;;;;;;4181942;28;20109;-58
2023/08/31 10:03:01;;;;;;;1.88;0.80;;;21.40;99.90;;;;;;4181601;28;20055;-58
2023/08/31 10:05:22;;;;;;;1.85;0.70;;;22.00;99.90;;;;;;4180691;28;20045;-58
2023/08/31 10:07:43;;;;;;;0.82;0.80;;;21.70;99.90;;;;;;4180324;28;20244;-58
2023/08/31 10:10:04;;;;;;;4.38;1.27;;;21.80;99.90;;;;;;4180608;28;20137;-58
2023/08/31 10:12:26;;;;;;;1.40;0.90;;;21.70;99.90;;;;;;4179398;28;20087;-59
2023/08/31 10:14:49;;;;;;;1.13;0.80;;;21.90;99.90;;;;;;4181508;28;20087;-59
2023/08/31 10:17:09;;;;;;;;;;;22.20;99.90;;;;;;4184896;28;20121;-58
2023/08/31 10:19:29;;;;;;;0.77;0.77;;;22.10;99.90;;;;;;4193213;28;19924;-59
2023/08/31 10:21:50;;;;;;;2.80;0.90;;;22.10;99.90;;;;;;4179775;28;20056;-58
2023/08/31 10:24:09;;;;;;;2.78;1.00;;;22.30;99.90;;;;;;4181937;28;20067;-59
2023/08/31 10:26:31;;;;;;;2.22;0.77;;;22.60;99.90;;;;;;4182032;28;20414;-59
2023/08/31 10:28:51;;;;;;;2.35;1.45;;;23.10;99.90;;;;;;4180774;28;20320;-58
2023/08/31 10:31:18;;;;;;;2.25;0.88;;;22.90;99.90;;;;;;4181089;28;20379;-58
2023/08/31 10:33:46;;;;;;;0.90;0.70;;;23.10;99.90;;;;;;4181141;28;20051;-58
2023/08/31 10:36:13;;;;;;;1.20;0.80;;;22.40;99.90;;;;;;4180602;28;20366;-58
2023/08/31 10:38:33;;;;;;;1.75;1.65;;;22.20;99.90;;;;;;4181980;28;20135;-59
2023/08/31 10:41:06;;;;;;;2.53;0.80;;;22.10;99.90;;;;;;4179522;28;20036;-59
2023/08/31 10:43:26;;;;;;;1.17;0.80;;;22.00;99.90;;;;;;4179523;28;20095;-58
2023/08/31 10:46:01;;;;;;;2.85;0.95;;;22.00;99.90;;;;;;4180513;28;20383;-59
2023/08/31 10:48:21;;;;;;;3.05;1.10;;;22.20;99.90;;;;;;4178591;28;20095;-59
2023/08/31 10:50:41;;;;;;;0.80;0.80;;;22.50;99.90;;;;;;4179570;28;20052;-58
2023/08/31 10:53:09;;;;;;;2.75;0.80;;;22.70;99.90;;;;;;4180281;28;20048;-58
2023/08/31 10:55:31;;;;;;;1.42;0.80;;;22.60;99.90;;;;;;4181379;28;20117;-58
2023/08/31 10:57:51;;;;;;;2.80;0.90;;;22.80;99.90;;;;;;4181917;28;20051;-59
2023/08/31 11:00:13;;;;;;;3.15;0.85;;;22.90;99.90;;;;;;4187598;28;20277;-58
2023/08/31 11:02:43;;;;;;;1.67;1.00;;;22.80;99.90;;;;;;4187899;28;20048;-59
2023/08/31 11:05:20;;;;;;;2.67;0.90;;;22.80;99.90;;;;;;4179788;28;20064;-58
2023/08/31 11:07:45;;;;;;;1.35;0.80;;;23.30;99.90;;;;;;4180307;28;20175;-58
2023/08/31 11:10:17;;;;;;;3.00;0.70;;;23.60;99.90;;;;;;4187003;28;20082;-58
2023/08/31 11:12:38;;;;;;;3.70;0.80;;;23.50;99.90;;;;;;4178300;28;20048;-59
2023/08/31 11:14:58;;;;;;;2.60;0.80;;;23.80;99.90;;;;;;4178412;28;20121;-58
2023/08/31 11:17:18;;;;;;;1.38;0.93;;;24.20;99.90;;;;;;4179422;28;20064;-59
2023/08/31 11:19:38;;;;;;;2.70;0.90;;;24.00;99.90;;;;;;4181717;28;20110;-59
2023/08/31 11:22:02;;;;;;;1.20;0.70;;;24.40;99.90;;;;;;4180997;28;20040;-58
2023/08/31 11:24:23;;;;;;;1.08;0.60;;;24.10;99.90;;;;;;4181431;28;20095;-58
2023/08/31 11:26:43;;;;;;;1.17;0.70;;;24.30;99.90;;;;;;4181207;28;20051;-58
2023/08/31 11:29:07;;;;;;;1.50;0.65;;;24.10;99.90;;;;;;4181453;28;20048;-58
2023/08/31 11:31:27;;;;;;;1.75;0.80;;;23.10;99.90;;;;;;4180257;28;20061;-58
2023/08/31 11:33:48;;;;;;;1.00;0.70;;;22.90;99.90;;;;;;4183449;28;20280;-58
2023/08/31 11:36:08;;;;;;;1.17;0.70;;;22.60;99.90;;;;;;4178914;28;20039;-58
2023/08/31 11:38:29;;;;;;;3.08;0.90;;;22.40;99.90;;;;;;4179986;28;20084;-58
2023/08/31 11:40:49;;;;;;;1.10;0.75;;;22.40;99.90;;;;;;4176772;28;20052;-59
2023/08/31 11:43:15;;;;;;;3.50;1.20;;;22.60;99.90;;;;;;4181387;28;20091;-58
2023/08/31 11:45:37;;;;;;;4.35;0.80;;;23.10;99.90;;;;;;4177876;28;20422;-58
2023/08/31 11:47:57;;;;;;;0.87;0.70;;;23.40;99.90;;;;;;4179608;28;20075;-58
2023/08/31 11:50:19;;;;;;;0.70;0.70;;;23.50;99.90;;;;;;4181093;28;20319;-58
2023/08/31 11:52:39;;;;;;;1.77;1.23;;;23.40;99.90;;;;;;4180000;28;20048;-59
2023/08/31 11:54:59;;;;;;;1.30;0.70;;;23.40;99.90;;;;;;4181496;28;20319;-58
2023/08/31 11:57:19;;;;;;;3.08;0.70;;;23.60;99.90;;;;;;4182682;28;20055;-58
2023/08/31 11:59:39;;;;;;;1.58;0.75;;;23.70;99.90;;;;;;4180302;28;20398;-58
2023/08/31 12:01:59;;;;;;;2.65;0.80;;;24.10;99.90;;;;;;4180182;28;20052;-59
2023/08/31 12:04:22;;;;;;;0.80;0.70;;;24.20;99.90;;;;;;4175595;28;20317;-59
2023/08/31 12:06:48;;;;;;;0.90;0.90;;;24.10;99.90;;;;;;4181638;28;20186;-59
2023/08/31 12:09:09;;;;;;;1.10;0.70;;;24.20;99.90;;;;;;4176633;28;20364;-59
2023/08/31 12:11:29;;;;;;;1.70;0.70;;;24.20;99.90;;;;;;4176946;28;20167;-60
2023/08/31 12:13:50;;;;;;;1.15;0.70;;;24.40;99.90;;;;;;4186968;28;20087;-59
2023/08/31 12:16:13;;;;;;;0.70;0.70;;;24.40;99.90;;;;;;4177927;28;20134;-58